createdAt,value
2023-01-26T00:01:32.970Z,4.07
2023-01-26T00:03:59.643Z,3.80
2023-01-26T00:06:26.795Z,3.75
2023-01-26T00:08:57.453Z,3.85
2023-01-26T00:11:29.394Z,3.78
2023-01-26T00:13:58.401Z,3.60
2023-01-26T00:16:25.649Z,3.50
2023-01-26T00:18:52.373Z,3.83
2023-01-26T00:21:20.853Z,3.53
2023-01-26T00:23:50.760Z,3.72
2023-01-26T00:26:25.261Z,3.28
2023-01-26T00:28:53.211Z,3.53
2023-01-26T00:31:25.432Z,3.30
2023-01-26T00:33:54.655Z,3.30
2023-01-26T00:36:21.319Z,3.47
2023-01-26T00:38:48.406Z,3.67
2023-01-26T00:41:33.656Z,3.72
2023-01-26T00:44:02.041Z,3.30
2023-01-26T00:46:28.737Z,3.33
2023-01-26T00:48:55.419Z,3.95
2023-01-26T00:51:22.023Z,3.55
2023-01-26T00:53:48.657Z,3.42
2023-01-26T00:56:15.281Z,3.58
2023-01-26T00:58:42.901Z,3.42
2023-01-26T01:01:09.629Z,3.13
2023-01-26T01:03:36.249Z,3.63
2023-01-26T01:06:02.927Z,3.40
2023-01-26T01:08:29.564Z,3.33
2023-01-26T01:11:08.122Z,3.25
2023-01-26T01:13:35.540Z,3.35
2023-01-26T01:16:12.502Z,3.80
2023-01-26T01:18:39.319Z,3.40
2023-01-26T01:21:07.695Z,3.67
2023-01-26T01:23:34.436Z,3.63
2023-01-26T01:26:01.351Z,3.65
2023-01-26T01:28:28.311Z,3.42
2023-01-26T01:30:54.964Z,3.60
2023-01-26T01:33:23.238Z,2.92
2023-01-26T01:36:00.803Z,3.10
2023-01-26T01:38:27.832Z,2.92
2023-01-26T01:40:55.520Z,3.33
2023-01-26T01:43:23.454Z,3.50
2023-01-26T01:45:51.497Z,3.45
2023-01-26T01:48:24.761Z,3.28
2023-01-26T01:50:56.378Z,3.25
2023-01-26T01:53:31.144Z,3.28
2023-01-26T01:56:02.233Z,3.08
2023-01-26T01:58:31.881Z,3.20
2023-01-26T02:00:59.017Z,3.20
2023-01-26T02:03:26.732Z,3.42
2023-01-26T02:06:01.972Z,3.17
2023-01-26T02:08:36.170Z,3.30
2023-01-26T02:11:13.714Z,3.15
2023-01-26T02:13:42.262Z,2.85
2023-01-26T02:16:09.111Z,2.72
2023-01-26T02:18:36.126Z,3.15
2023-01-26T02:21:07.262Z,2.70
2023-01-26T02:23:49.212Z,3.27
2023-01-26T02:26:24.020Z,2.97
2023-01-26T02:28:50.877Z,3.00
2023-01-26T02:31:18.501Z,3.50
2023-01-26T02:33:45.481Z,2.92
2023-01-26T02:36:19.807Z,2.95
2023-01-26T02:39:10.276Z,3.10
2023-01-26T02:41:55.413Z,2.60
2023-01-26T02:44:22.635Z,2.78
2023-01-26T02:46:49.224Z,2.95
2023-01-26T02:49:34.599Z,3.05
2023-01-26T02:52:01.189Z,3.08
2023-01-26T02:54:46.340Z,2.80
2023-01-26T02:57:12.876Z,2.70
2023-01-26T02:59:39.438Z,3.10
2023-01-26T03:02:06.432Z,3.00
2023-01-26T03:04:33.018Z,3.28
2023-01-26T03:06:59.928Z,2.90
2023-01-26T03:09:26.467Z,3.30
2023-01-26T03:11:53.052Z,2.80
2023-01-26T03:14:20.016Z,2.70
2023-01-26T03:16:46.637Z,2.97
2023-01-26T03:19:34.157Z,3.08
2023-01-26T03:22:20.023Z,3.22
2023-01-26T03:25:05.693Z,2.58
2023-01-26T03:27:40.553Z,3.05
2023-01-26T03:30:07.845Z,2.72
2023-01-26T03:32:34.404Z,3.15
2023-01-26T03:35:01.043Z,3.10
2023-01-26T03:37:27.660Z,2.80
2023-01-26T03:40:13.346Z,3.00
2023-01-26T03:42:58.944Z,2.92
2023-01-26T03:45:44.178Z,2.72
2023-01-26T03:48:31.170Z,2.90
2023-01-26T03:51:16.725Z,2.85
2023-01-26T03:54:02.467Z,3.25
2023-01-26T03:56:33.029Z,3.08
2023-01-26T03:59:08.151Z,3.13
2023-01-26T04:01:36.532Z,2.80
2023-01-26T04:04:22.687Z,2.70
2023-01-26T04:07:08.583Z,2.80
2023-01-26T04:09:45.104Z,2.53
2023-01-26T04:12:12.082Z,2.90
2023-01-26T04:14:57.496Z,2.92
2023-01-26T04:17:43.070Z,2.92
2023-01-26T04:20:29.225Z,2.72
2023-01-26T04:22:55.794Z,2.60
2023-01-26T04:25:22.842Z,2.60
2023-01-26T04:27:49.455Z,2.47
2023-01-26T04:30:17.088Z,2.70
2023-01-26T04:32:43.939Z,2.75
2023-01-26T04:35:13.199Z,2.33
2023-01-26T04:37:39.952Z,2.70
2023-01-26T04:40:07.479Z,2.75
2023-01-26T04:42:34.123Z,2.75
2023-01-26T04:45:00.687Z,2.90
2023-01-26T04:47:29.293Z,2.65
2023-01-26T04:49:56.166Z,2.50
2023-01-26T04:52:22.967Z,2.97
2023-01-26T04:54:49.802Z,2.38
2023-01-26T04:57:16.670Z,2.88
2023-01-26T04:59:43.309Z,2.67
2023-01-26T05:02:10.327Z,2.88
2023-01-26T05:04:37.073Z,2.50
2023-01-26T05:07:03.915Z,2.83
2023-01-26T05:09:30.554Z,2.80
2023-01-26T05:12:17.173Z,2.50
2023-01-26T05:14:43.843Z,2.45
2023-01-26T05:17:10.474Z,2.58
2023-01-26T05:19:37.092Z,2.75
2023-01-26T05:22:03.724Z,2.78
2023-01-26T05:24:30.320Z,2.50
2023-01-26T05:27:16.867Z,2.58
2023-01-26T05:29:43.419Z,2.80
2023-01-26T05:32:10.152Z,2.58
2023-01-26T05:34:36.744Z,2.97
2023-01-26T05:37:03.458Z,2.25
2023-01-26T05:39:30.099Z,2.40
2023-01-26T05:41:56.885Z,2.65
2023-01-26T05:44:24.864Z,2.90
2023-01-26T05:46:52.430Z,2.47
2023-01-26T05:49:19.075Z,2.60
2023-01-26T05:51:45.816Z,2.65
2023-01-26T05:54:12.521Z,2.10
2023-01-26T05:56:39.140Z,2.28
2023-01-26T05:59:05.804Z,2.50
2023-01-26T06:01:32.390Z,2.70
2023-01-26T06:03:59.041Z,2.60
2023-01-26T06:06:25.817Z,2.90
2023-01-26T06:08:52.353Z,2.47
2023-01-26T06:11:19.230Z,2.90
2023-01-26T06:13:45.862Z,2.80
2023-01-26T06:16:12.472Z,2.92
2023-01-26T06:18:39.049Z,3.10
2023-01-26T06:21:05.864Z,2.42
2023-01-26T06:23:32.644Z,2.85
2023-01-26T06:26:01.233Z,2.70
2023-01-26T06:28:28.689Z,2.70
2023-01-26T06:31:02.050Z,3.55
2023-01-26T06:33:29.083Z,2.80
2023-01-26T06:35:55.910Z,3.70
2023-01-26T06:38:22.647Z,2.70
2023-01-26T06:40:49.303Z,4.28
2023-01-26T06:43:15.888Z,3.78
2023-01-26T06:45:42.668Z,3.55
2023-01-26T06:48:09.253Z,3.60
2023-01-26T06:50:36.085Z,3.92
2023-01-26T06:53:21.561Z,3.63
2023-01-26T06:55:49.245Z,3.60
2023-01-26T06:58:15.944Z,3.83
2023-01-26T07:00:42.552Z,3.55
2023-01-26T07:03:10.812Z,3.65
2023-01-26T07:05:37.487Z,3.75
2023-01-26T07:08:06.398Z,3.20
2023-01-26T07:10:33.024Z,3.42
2023-01-26T07:12:59.611Z,3.67
2023-01-26T07:15:26.225Z,3.83
2023-01-26T07:17:52.843Z,3.42
2023-01-26T07:20:19.614Z,3.60
2023-01-26T07:22:46.298Z,4.10
2023-01-26T07:25:12.925Z,3.60
2023-01-26T07:27:39.498Z,3.70
2023-01-26T07:30:06.798Z,3.67
2023-01-26T07:32:33.386Z,3.55
2023-01-26T07:34:59.976Z,3.28
2023-01-26T07:37:30.514Z,3.53
2023-01-26T07:39:57.195Z,3.38
2023-01-26T07:42:23.855Z,3.58
2023-01-26T07:44:50.488Z,3.60
2023-01-26T07:47:17.062Z,3.53
2023-01-26T07:49:43.691Z,3.17
2023-01-26T07:52:10.309Z,3.40
2023-01-26T07:54:37.241Z,3.53
2023-01-26T07:57:06.826Z,3.50
2023-01-26T07:59:33.782Z,3.03
2023-01-26T08:02:00.768Z,3.60
2023-01-26T08:04:27.377Z,3.20
2023-01-26T08:06:53.983Z,3.35
2023-01-26T08:09:20.839Z,3.35
2023-01-26T08:11:47.646Z,3.30
2023-01-26T08:14:14.318Z,3.42
2023-01-26T08:16:40.980Z,3.25
2023-01-26T08:19:07.623Z,3.85
2023-01-26T08:21:34.216Z,3.33
2023-01-26T08:24:03.269Z,3.60
2023-01-26T08:26:29.860Z,3.35
2023-01-26T08:28:56.891Z,3.53
2023-01-26T08:31:25.309Z,3.40
2023-01-26T08:33:53.209Z,3.28
2023-01-26T08:36:22.299Z,3.75
2023-01-26T08:38:49.283Z,3.35
2023-01-26T08:41:15.835Z,3.63
2023-01-26T08:43:42.407Z,3.47
2023-01-26T08:46:09.187Z,3.13
2023-01-26T08:48:36.314Z,3.40
2023-01-26T08:51:05.209Z,3.10
2023-01-26T08:53:33.397Z,4.15
2023-01-26T08:56:04.879Z,4.10
2023-01-26T08:58:32.644Z,3.60
2023-01-26T09:00:59.929Z,3.97
2023-01-26T09:03:26.602Z,3.55
2023-01-26T09:05:53.230Z,3.47
2023-01-26T09:08:19.814Z,3.80
2023-01-26T09:10:46.501Z,3.40
2023-01-26T09:13:13.184Z,4.22
2023-01-26T09:15:39.852Z,4.00
2023-01-26T09:18:06.505Z,3.83
2023-01-26T09:20:33.212Z,3.95
2023-01-26T09:22:59.778Z,3.58
2023-01-26T09:25:26.346Z,4.07
2023-01-26T09:27:52.926Z,3.90
2023-01-26T09:30:19.536Z,3.95
2023-01-26T09:32:46.203Z,4.13
2023-01-26T09:35:14.522Z,3.70
2023-01-26T09:37:43.777Z,3.70
2023-01-26T09:40:18.155Z,3.60
2023-01-26T09:43:22.329Z,4.10
2023-01-26T09:46:17.955Z,4.10
2023-01-26T09:48:55.755Z,3.72
2023-01-26T09:51:57.632Z,4.20
2023-01-26T09:54:36.841Z,3.85
2023-01-26T09:57:16.303Z,3.80
2023-01-26T09:59:53.644Z,3.60
2023-01-26T10:02:35.572Z,3.92
2023-01-26T10:05:09.703Z,4.20
2023-01-26T10:07:36.445Z,4.10
2023-01-26T10:10:03.185Z,3.80
2023-01-26T10:12:36.739Z,3.90
2023-01-26T10:15:08.447Z,4.05
2023-01-26T10:17:39.226Z,4.10
2023-01-26T10:20:06.350Z,4.30
2023-01-26T10:22:46.019Z,4.15
2023-01-26T10:25:33.879Z,3.75
2023-01-26T10:28:22.254Z,4.10
2023-01-26T10:30:51.126Z,4.05
2023-01-26T10:33:26.349Z,4.18
2023-01-26T10:35:53.700Z,3.90
2023-01-26T10:38:35.739Z,4.05
2023-01-26T10:41:06.412Z,4.07
2023-01-26T10:43:36.904Z,3.90
2023-01-26T10:46:04.680Z,4.38
2023-01-26T10:48:31.672Z,4.35
2023-01-26T10:51:15.625Z,4.05
2023-01-26T10:53:42.221Z,3.33
2023-01-26T10:56:14.470Z,3.70
2023-01-26T10:58:52.416Z,3.95
2023-01-26T11:01:27.135Z,3.92
2023-01-26T11:04:07.283Z,4.00
2023-01-26T11:06:35.253Z,3.97
2023-01-26T11:09:13.536Z,3.88
2023-01-26T11:11:40.225Z,3.88
2023-01-26T11:14:16.674Z,4.22
2023-01-26T11:16:49.991Z,3.97
2023-01-26T11:23:49.825Z,3.72
2023-01-26T11:26:41.176Z,3.63
2023-01-26T11:29:32.454Z,3.72
2023-01-26T11:32:29.817Z,4.30
2023-01-26T11:35:08.241Z,4.20
2023-01-26T11:37:55.748Z,3.78
2023-01-26T11:40:46.935Z,3.75
2023-01-26T11:43:54.563Z,4.00
2023-01-26T11:46:39.415Z,3.85
2023-01-26T11:49:18.979Z,3.42
2023-01-26T11:52:14.808Z,3.78
2023-01-26T11:55:14.844Z,3.97
2023-01-26T11:58:05.335Z,3.95
2023-01-26T12:00:42.947Z,4.05
2023-01-26T12:03:35.407Z,3.65
2023-01-26T12:06:06.368Z,3.75
2023-01-26T12:08:52.015Z,3.95
2023-01-26T12:11:40.007Z,3.72
2023-01-26T12:14:06.674Z,3.63
2023-01-26T12:17:15.574Z,3.60
2023-01-26T12:19:48.350Z,3.80
2023-01-26T12:22:22.216Z,3.40
2023-01-26T12:25:19.514Z,3.42
2023-01-26T12:27:55.729Z,3.67
2023-01-26T12:30:39.602Z,3.78
2023-01-26T12:33:08.525Z,3.78
2023-01-26T12:35:59.994Z,3.50
2023-01-26T12:38:48.025Z,3.70
2023-01-26T12:41:30.524Z,3.20
2023-01-26T12:44:27.873Z,3.65
2023-01-26T12:47:01.699Z,3.58
2023-01-26T12:49:52.308Z,3.40
2023-01-26T12:52:30.190Z,3.90
2023-01-26T12:55:34.767Z,3.65
2023-01-26T12:58:29.546Z,3.40
2023-01-26T13:01:05.125Z,3.67
2023-01-26T13:03:38.303Z,3.10
2023-01-26T13:06:10.888Z,3.55
2023-01-26T13:08:37.418Z,3.33
2023-01-26T13:11:09.186Z,2.97
2023-01-26T13:13:55.623Z,3.42
2023-01-26T13:16:34.676Z,3.38
2023-01-26T13:19:02.789Z,3.30
2023-01-26T13:21:43.207Z,3.58
2023-01-26T13:24:18.911Z,3.20
2023-01-26T13:26:53.900Z,3.70
2023-01-26T13:29:27.244Z,3.50
2023-01-26T13:31:57.315Z,3.40
2023-01-26T13:34:36.223Z,3.20
2023-01-26T13:37:31.907Z,3.42
2023-01-26T13:40:14.395Z,3.20
2023-01-26T13:43:26.277Z,3.10
2023-01-26T13:46:00.844Z,3.70
2023-01-26T13:48:39.107Z,3.30
2023-01-26T13:51:12.156Z,3.08
2023-01-26T13:53:41.598Z,3.50
2023-01-26T13:56:23.249Z,3.30
2023-01-26T13:58:50.365Z,3.00
2023-01-26T14:01:17.175Z,3.42
2023-01-26T14:03:44.368Z,3.33
2023-01-26T14:06:19.009Z,3.42
2023-01-26T14:08:54.753Z,3.40
2023-01-26T14:11:24.596Z,3.80
2023-01-26T14:14:00.129Z,3.38
2023-01-26T14:16:34.029Z,3.25
2023-01-26T14:19:27.788Z,3.15
2023-01-26T14:22:00.008Z,3.28
2023-01-26T14:24:41.040Z,3.20
2023-01-26T14:27:30.275Z,3.28
2023-01-26T14:29:57.878Z,2.90
2023-01-26T14:32:25.491Z,2.92
2023-01-26T14:34:54.018Z,3.85
2023-01-26T14:37:21.040Z,3.00
2023-01-26T14:39:48.162Z,3.58
2023-01-26T14:42:19.060Z,3.50
2023-01-26T14:44:46.447Z,3.60
2023-01-26T14:47:25.664Z,3.58
2023-01-26T14:50:01.156Z,3.42
2023-01-26T14:52:34.401Z,3.10
2023-01-26T14:55:08.950Z,3.67
2023-01-26T14:57:35.597Z,3.03
2023-01-26T15:00:08.772Z,3.30
2023-01-26T15:02:44.258Z,3.38
2023-01-26T15:05:18.029Z,3.25
2023-01-26T15:08:01.230Z,3.03
2023-01-26T15:10:53.831Z,3.53
2023-01-26T15:13:24.157Z,3.30
2023-01-26T15:16:14.168Z,3.03
2023-01-26T15:18:40.782Z,3.40
2023-01-26T15:21:18.788Z,3.30
2023-01-26T15:23:49.650Z,3.30
2023-01-26T15:26:35.274Z,3.40
2023-01-26T15:29:07.117Z,3.40
2023-01-26T15:31:37.344Z,3.05
2023-01-26T15:34:05.131Z,3.30
2023-01-26T15:36:48.095Z,3.42
2023-01-26T15:39:17.072Z,3.30
2023-01-26T15:41:46.753Z,8.13
2023-01-26T15:46:44.950Z,8.40
2023-01-26T15:49:12.977Z,7.60
2023-01-26T15:51:39.638Z,5.82
2023-01-26T15:54:12.367Z,5.50
2023-01-26T15:56:39.031Z,5.25
2023-01-26T15:59:05.857Z,4.85
2023-01-26T16:01:32.504Z,4.78
2023-01-26T16:03:59.064Z,4.00
2023-01-26T16:06:27.064Z,4.20
2023-01-26T16:08:54.585Z,4.35
2023-01-26T16:11:22.777Z,3.85
2023-01-26T16:14:02.322Z,4.00
2023-01-26T16:16:29.728Z,3.75
2023-01-26T16:18:56.992Z,4.00
2023-01-26T16:21:28.655Z,3.47
2023-01-26T16:23:55.591Z,3.00
2023-01-26T16:26:22.299Z,3.90
2023-01-26T16:28:49.093Z,3.55
2023-01-26T16:31:17.083Z,3.10
2023-01-26T16:33:43.823Z,4.10
2023-01-26T16:36:12.234Z,3.53
2023-01-26T16:38:39.452Z,3.45
2023-01-26T16:41:08.216Z,3.80
2023-01-26T16:43:39.729Z,3.40
2023-01-26T16:46:06.470Z,3.53
2023-01-26T16:48:34.845Z,3.65
2023-01-26T16:51:11.466Z,3.60
2023-01-26T16:53:38.092Z,3.33
2023-01-26T16:56:09.176Z,3.55
2023-01-26T16:58:35.760Z,3.75
2023-01-26T17:01:03.118Z,3.60
2023-01-26T17:03:29.718Z,3.35
2023-01-26T17:05:56.904Z,3.72
2023-01-26T17:08:23.762Z,3.75
2023-01-26T17:11:01.623Z,3.92
2023-01-26T17:13:29.476Z,2.90
2023-01-26T17:15:56.888Z,3.00
2023-01-26T17:18:23.925Z,3.10
2023-01-26T17:20:50.609Z,3.28
2023-01-26T17:23:17.262Z,3.22
2023-01-26T17:25:44.009Z,3.13
2023-01-26T17:28:10.606Z,2.90
2023-01-26T17:30:37.729Z,2.88
2023-01-26T17:33:04.360Z,3.63
2023-01-26T17:35:30.993Z,3.00
2023-01-26T17:37:57.530Z,3.50
2023-01-26T17:40:24.149Z,2.78
2023-01-26T17:42:50.919Z,3.08
2023-01-26T17:45:17.683Z,3.20
2023-01-26T17:47:44.404Z,3.22
2023-01-26T17:50:11.214Z,3.30
2023-01-26T17:52:37.767Z,3.22
2023-01-26T17:55:06.155Z,2.65
2023-01-26T17:57:33.521Z,3.13
2023-01-26T18:00:00.135Z,3.10
2023-01-26T18:02:26.763Z,2.97
2023-01-26T18:04:53.502Z,3.05
2023-01-26T18:07:20.507Z,3.05
2023-01-26T18:09:47.094Z,2.70
2023-01-26T18:12:13.693Z,2.90
2023-01-26T18:14:40.309Z,3.13
2023-01-26T18:17:06.875Z,2.90
2023-01-26T18:19:33.799Z,3.25
2023-01-26T18:22:00.430Z,2.67
2023-01-26T18:24:27.190Z,2.67
2023-01-26T18:26:53.862Z,2.47
2023-01-26T18:29:20.422Z,2.95
2023-01-26T18:31:48.041Z,2.30
2023-01-26T18:34:14.715Z,2.45
2023-01-26T18:36:41.445Z,2.78
2023-01-26T18:39:13.089Z,3.10
2023-01-26T18:41:40.686Z,3.03
2023-01-26T18:44:08.169Z,2.70
2023-01-26T18:46:34.840Z,2.75
2023-01-26T18:49:03.129Z,2.70
2023-01-26T18:51:32.202Z,2.97
2023-01-26T18:53:58.954Z,2.88
2023-01-26T18:56:25.757Z,2.72
2023-01-26T18:58:53.570Z,2.80
2023-01-26T19:01:21.297Z,2.50
2023-01-26T19:03:54.054Z,2.70
2023-01-26T19:06:22.403Z,2.88
2023-01-26T19:08:58.166Z,2.50
2023-01-26T19:11:27.653Z,2.40
2023-01-26T19:13:54.906Z,2.35
2023-01-26T19:16:22.004Z,2.53
2023-01-26T19:18:49.778Z,2.40
2023-01-26T19:21:21.334Z,2.45
2023-01-26T19:23:48.823Z,2.63
2023-01-26T19:26:18.122Z,2.85
2023-01-26T19:28:45.498Z,2.63
2023-01-26T19:31:13.218Z,2.35
2023-01-26T19:33:40.234Z,2.60
2023-01-26T19:36:07.637Z,2.40
2023-01-26T19:38:36.843Z,2.38
2023-01-26T19:41:03.512Z,2.70
2023-01-26T19:43:30.187Z,2.40
2023-01-26T19:45:57.015Z,2.58
2023-01-26T19:48:25.644Z,2.53
2023-01-26T19:51:04.474Z,2.25
2023-01-26T19:53:36.454Z,2.25
2023-01-26T19:56:09.984Z,2.63
2023-01-26T19:58:37.007Z,2.40
2023-01-26T20:01:07.120Z,2.60
2023-01-26T20:03:34.595Z,2.30
2023-01-26T20:06:01.809Z,3.53
2023-01-26T20:08:29.312Z,3.00
2023-01-26T20:11:06.189Z,3.47
2023-01-26T20:13:33.789Z,3.72
2023-01-26T20:16:00.960Z,3.40
2023-01-26T20:18:27.662Z,3.45
2023-01-26T20:20:55.952Z,3.60
2023-01-26T20:23:23.114Z,3.33
2023-01-26T20:25:51.474Z,3.40
2023-01-26T20:28:18.915Z,3.45
2023-01-26T20:30:45.723Z,3.67
2023-01-26T20:33:12.624Z,3.40
2023-01-26T20:35:40.292Z,3.60
2023-01-26T20:38:06.985Z,3.60
2023-01-26T20:40:33.570Z,2.85
2023-01-26T20:43:00.247Z,3.60
2023-01-26T20:45:26.885Z,3.40
2023-01-26T20:47:53.596Z,3.53
2023-01-26T20:50:20.317Z,3.15
2023-01-26T20:52:48.268Z,3.50
2023-01-26T20:55:14.877Z,3.28
2023-01-26T20:57:41.508Z,2.97
2023-01-26T21:00:08.760Z,2.88
2023-01-26T21:02:35.317Z,3.20
2023-01-26T21:05:01.903Z,3.40
2023-01-26T21:07:28.559Z,3.05
2023-01-26T21:09:55.191Z,3.25
2023-01-26T21:12:23.090Z,3.00
2023-01-26T21:14:49.710Z,2.97
2023-01-26T21:17:17.548Z,3.10
2023-01-26T21:19:44.337Z,3.08
2023-01-26T21:22:10.981Z,3.20
2023-01-26T21:24:37.919Z,3.53
2023-01-26T21:27:06.660Z,3.33
2023-01-26T21:29:33.288Z,2.70
2023-01-26T21:32:00.058Z,3.25
2023-01-26T21:34:26.674Z,3.00
2023-01-26T21:36:53.277Z,2.90
2023-01-26T21:39:22.058Z,2.88
2023-01-26T21:41:59.181Z,3.17
2023-01-26T21:44:31.231Z,3.10
2023-01-26T21:49:26.802Z,2.78
2023-01-26T21:52:11.854Z,2.97
2023-01-26T21:54:38.595Z,3.13
2023-01-26T21:57:28.197Z,2.45
2023-01-26T21:59:55.503Z,3.25
2023-01-26T22:02:23.892Z,2.65
2023-01-26T22:04:53.369Z,2.90
2023-01-26T22:07:23.030Z,2.88
2023-01-26T22:09:49.696Z,2.85
2023-01-26T22:12:16.600Z,2.90
2023-01-26T22:14:46.032Z,2.90
2023-01-26T22:17:15.820Z,3.60
2023-01-26T22:19:42.615Z,2.67
2023-01-26T22:22:09.188Z,2.92
2023-01-26T22:24:36.321Z,3.00
2023-01-26T22:27:03.116Z,2.85
2023-01-26T22:29:32.121Z,2.80
2023-01-26T22:31:58.788Z,2.55
2023-01-26T22:34:25.453Z,2.90
2023-01-26T22:36:52.184Z,2.80
2023-01-26T22:39:19.075Z,2.47
2023-01-26T22:41:45.690Z,2.72
2023-01-26T22:44:13.452Z,2.80
2023-01-26T22:46:40.088Z,2.65
2023-01-26T22:49:06.770Z,2.75
2023-01-26T22:51:36.901Z,2.40
2023-01-26T22:54:04.318Z,2.72
2023-01-26T22:56:31.199Z,2.95
2023-01-26T22:59:00.651Z,2.58
2023-01-26T23:01:32.426Z,2.65
2023-01-26T23:04:00.317Z,2.58
2023-01-26T23:06:27.525Z,2.90
2023-01-26T23:08:54.876Z,2.70
2023-01-26T23:11:25.643Z,2.80
2023-01-26T23:13:54.219Z,2.55
2023-01-26T23:16:23.390Z,2.20
2023-01-26T23:18:52.971Z,2.78
2023-01-26T23:21:19.948Z,2.17
2023-01-26T23:23:46.915Z,3.10
2023-01-26T23:26:13.856Z,2.40
2023-01-26T23:28:42.530Z,2.42
2023-01-26T23:31:09.851Z,2.47
2023-01-26T23:33:37.533Z,2.22
2023-01-26T23:36:06.169Z,2.55
2023-01-26T23:38:33.370Z,2.33
2023-01-26T23:41:05.235Z,2.30
2023-01-26T23:43:31.930Z,2.30
2023-01-26T23:45:58.567Z,2.20
2023-01-26T23:48:25.869Z,2.30
2023-01-26T23:51:00.347Z,2.45
2023-01-26T23:53:28.210Z,2.33
2023-01-26T23:55:55.435Z,2.08
2023-01-26T23:58:22.010Z,2.40
